sensor_id;sensor_type;location;lat;lon;timestamp;P1;durP1;ratioP1;P2;durP2;ratioP2
61635;SDS011;59438;45.014;39.006;2022-09-03T00:00:10;9.13;;;2.33;;
61635;SDS011;59438;45.014;39.006;2022-09-03T00:02:39;8.13;;;2.37;;
61635;SDS011;59438;45.014;39.006;2022-09-03T00:05:09;7.78;;;2.50;;
61635;SDS011;59438;45.014;39.006;2022-09-03T00:07:42;11.18;;;2.60;;
61635;SDS011;59438;45.014;39.006;2022-09-03T00:10:15;9.55;;;2.15;;
61635;SDS011;59438;45.014;39.006;2022-09-03T00:12:47;4.75;;;2.08;;
61635;SDS011;59438;45.014;39.006;2022-09-03T00:15:17;9.00;;;2.08;;
61635;SDS011;59438;45.014;39.006;2022-09-03T00:17:46;8.48;;;2.10;;
61635;SDS011;59438;45.014;39.006;2022-09-03T00:20:19;4.85;;;2.38;;
61635;SDS011;59438;45.014;39.006;2022-09-03T00:22:50;5.43;;;1.80;;
61635;SDS011;59438;45.014;39.006;2022-09-03T00:25:20;6.68;;;1.95;;
61635;SDS011;59438;45.014;39.006;2022-09-03T00:27:51;5.32;;;1.75;;
61635;SDS011;59438;45.014;39.006;2022-09-03T00:30:19;8.02;;;2.20;;
61635;SDS011;59438;45.014;39.006;2022-09-03T00:32:47;5.07;;;1.75;;
61635;SDS011;59438;45.014;39.006;2022-09-03T00:35:21;7.43;;;1.83;;
61635;SDS011;59438;45.014;39.006;2022-09-03T00:37:50;5.47;;;1.95;;
61635;SDS011;59438;45.014;39.006;2022-09-03T00:40:21;4.80;;;1.95;;
61635;SDS011;59438;45.014;39.006;2022-09-03T00:43:06;8.00;;;2.05;;
61635;SDS011;59438;45.014;39.006;2022-09-03T00:45:42;8.18;;;1.73;;
61635;SDS011;59438;45.014;39.006;2022-09-03T00:48:19;5.82;;;1.90;;
61635;SDS011;59438;45.014;39.006;2022-09-03T00:50:55;7.07;;;1.80;;
61635;SDS011;59438;45.014;39.006;2022-09-03T00:53:37;5.72;;;2.00;;
61635;SDS011;59438;45.014;39.006;2022-09-03T00:56:11;6.90;;;1.85;;
61635;SDS011;59438;45.014;39.006;2022-09-03T00:59:01;8.65;;;1.80;;
61635;SDS011;59438;45.014;39.006;2022-09-03T01:01:38;10.48;;;1.90;;
61635;SDS011;59438;45.014;39.006;2022-09-03T01:04:24;5.18;;;1.63;;
61635;SDS011;59438;45.014;39.006;2022-09-03T01:07:01;6.68;;;1.50;;
61635;SDS011;59438;45.014;39.006;2022-09-03T01:09:39;3.28;;;1.58;;
61635;SDS011;59438;45.014;39.006;2022-09-03T01:12:17;2.53;;;1.55;;
61635;SDS011;59438;45.014;39.006;2022-09-03T01:14:56;6.32;;;1.60;;
61635;SDS011;59438;45.014;39.006;2022-09-03T01:17:35;3.65;;;1.65;;
61635;SDS011;59438;45.014;39.006;2022-09-03T01:20:19;4.60;;;1.75;;
61635;SDS011;59438;45.014;39.006;2022-09-03T01:26:01;2.35;;;1.27;;
61635;SDS011;59438;45.014;39.006;2022-09-03T01:28:40;3.20;;;1.42;;
61635;SDS011;59438;45.014;39.006;2022-09-03T01:31:17;13.07;;;1.53;;
61635;SDS011;59438;45.014;39.006;2022-09-03T01:33:55;5.53;;;1.50;;
61635;SDS011;59438;45.014;39.006;2022-09-03T01:36:33;3.58;;;1.40;;
61635;SDS011;59438;45.014;39.006;2022-09-03T01:39:06;6.15;;;1.35;;
61635;SDS011;59438;45.014;39.006;2022-09-03T01:41:41;2.67;;;1.25;;
61635;SDS011;59438;45.014;39.006;2022-09-03T01:44:20;5.00;;;1.35;;
61635;SDS011;59438;45.014;39.006;2022-09-03T01:46:56;10.38;;;1.50;;
61635;SDS011;59438;45.014;39.006;2022-09-03T01:49:30;5.32;;;1.67;;
61635;SDS011;59438;45.014;39.006;2022-09-03T01:52:05;3.88;;;1.20;;
61635;SDS011;59438;45.014;39.006;2022-09-03T01:54:40;2.75;;;1.10;;
61635;SDS011;59438;45.014;39.006;2022-09-03T01:57:21;9.80;;;1.67;;
61635;SDS011;59438;45.014;39.006;2022-09-03T02:00:02;7.22;;;1.45;;
61635;SDS011;59438;45.014;39.006;2022-09-03T02:02:31;9.05;;;1.38;;
61635;SDS011;59438;45.014;39.006;2022-09-03T02:04:59;3.53;;;1.40;;
61635;SDS011;59438;45.014;39.006;2022-09-03T02:07:29;7.45;;;1.60;;
61635;SDS011;59438;45.014;39.006;2022-09-03T02:09:59;3.47;;;1.40;;
61635;SDS011;59438;45.014;39.006;2022-09-03T02:12:27;6.35;;;1.30;;
61635;SDS011;59438;45.014;39.006;2022-09-03T02:14:56;5.05;;;1.40;;
61635;SDS011;59438;45.014;39.006;2022-09-03T02:17:24;5.82;;;1.33;;
61635;SDS011;59438;45.014;39.006;2022-09-03T02:19:50;2.70;;;1.30;;
61635;SDS011;59438;45.014;39.006;2022-09-03T02:22:17;8.20;;;1.25;;
61635;SDS011;59438;45.014;39.006;2022-09-03T02:24:43;2.83;;;1.55;;
61635;SDS011;59438;45.014;39.006;2022-09-03T02:27:09;6.18;;;1.30;;
61635;SDS011;59438;45.014;39.006;2022-09-03T02:29:36;5.82;;;1.60;;
61635;SDS011;59438;45.014;39.006;2022-09-03T02:32:03;3.85;;;1.40;;
61635;SDS011;59438;45.014;39.006;2022-09-03T02:34:31;6.03;;;1.70;;
61635;SDS011;59438;45.014;39.006;2022-09-03T02:36:57;5.68;;;1.50;;
61635;SDS011;59438;45.014;39.006;2022-09-03T02:39:23;6.82;;;1.40;;
61635;SDS011;59438;45.014;39.006;2022-09-03T02:41:50;5.50;;;1.48;;
61635;SDS011;59438;45.014;39.006;2022-09-03T02:44:20;4.40;;;1.48;;
61635;SDS011;59438;45.014;39.006;2022-09-03T02:46:56;4.13;;;1.40;;
61635;SDS011;59438;45.014;39.006;2022-09-03T02:49:23;3.20;;;1.30;;
61635;SDS011;59438;45.014;39.006;2022-09-03T02:51:56;5.72;;;1.30;;
61635;SDS011;59438;45.014;39.006;2022-09-03T02:54:23;3.45;;;1.42;;
61635;SDS011;59438;45.014;39.006;2022-09-03T02:56:50;4.78;;;1.38;;
61635;SDS011;59438;45.014;39.006;2022-09-03T02:59:17;6.25;;;1.40;;
61635;SDS011;59438;45.014;39.006;2022-09-03T03:01:43;5.60;;;1.48;;
61635;SDS011;59438;45.014;39.006;2022-09-03T03:04:09;6.88;;;1.80;;
61635;SDS011;59438;45.014;39.006;2022-09-03T03:06:36;3.92;;;1.20;;
61635;SDS011;59438;45.014;39.006;2022-09-03T03:09:04;6.97;;;1.55;;
61635;SDS011;59438;45.014;39.006;2022-09-03T03:11:30;4.15;;;1.85;;
61635;SDS011;59438;45.014;39.006;2022-09-03T03:13:57;5.40;;;1.50;;
61635;SDS011;59438;45.014;39.006;2022-09-03T03:16:23;4.18;;;1.48;;
61635;SDS011;59438;45.014;39.006;2022-09-03T03:18:50;4.75;;;2.20;;
61635;SDS011;59438;45.014;39.006;2022-09-03T03:21:17;3.40;;;1.33;;
61635;SDS011;59438;45.014;39.006;2022-09-03T03:23:43;7.85;;;1.73;;
61635;SDS011;59438;45.014;39.006;2022-09-03T03:26:13;4.88;;;1.90;;
61635;SDS011;59438;45.014;39.006;2022-09-03T03:28:41;8.05;;;1.70;;
61635;SDS011;59438;45.014;39.006;2022-09-03T03:31:07;5.82;;;1.60;;
61635;SDS011;59438;45.014;39.006;2022-09-03T03:33:35;7.72;;;1.40;;
61635;SDS011;59438;45.014;39.006;2022-09-03T03:36:03;5.30;;;1.60;;
61635;SDS011;59438;45.014;39.006;2022-09-03T03:38:30;8.05;;;1.55;;
61635;SDS011;59438;45.014;39.006;2022-09-03T03:40:57;3.72;;;1.70;;
61635;SDS011;59438;45.014;39.006;2022-09-03T03:43:25;6.32;;;1.70;;
61635;SDS011;59438;45.014;39.006;2022-09-03T03:45:55;6.07;;;1.50;;
61635;SDS011;59438;45.014;39.006;2022-09-03T03:48:22;6.13;;;1.70;;
61635;SDS011;59438;45.014;39.006;2022-09-03T03:50:48;4.78;;;1.60;;
61635;SDS011;59438;45.014;39.006;2022-09-03T03:53:15;13.02;;;1.70;;
61635;SDS011;59438;45.014;39.006;2022-09-03T03:55:41;9.52;;;1.80;;
61635;SDS011;59438;45.014;39.006;2022-09-03T03:58:07;3.70;;;1.52;;
61635;SDS011;59438;45.014;39.006;2022-09-03T04:00:35;5.80;;;1.80;;
61635;SDS011;59438;45.014;39.006;2022-09-03T04:03:02;13.13;;;2.15;;
61635;SDS011;59438;45.014;39.006;2022-09-03T04:05:28;8.23;;;2.38;;
61635;SDS011;59438;45.014;39.006;2022-09-03T04:07:59;9.17;;;2.23;;
61635;SDS011;59438;45.014;39.006;2022-09-03T04:10:26;6.55;;;2.25;;
61635;SDS011;59438;45.014;39.006;2022-09-03T04:12:53;8.15;;;2.40;;
61635;SDS011;59438;45.014;39.006;2022-09-03T04:15:19;5.93;;;2.17;;
61635;SDS011;59438;45.014;39.006;2022-09-03T04:17:47;10.05;;;2.10;;
61635;SDS011;59438;45.014;39.006;2022-09-03T04:20:14;15.45;;;2.30;;
61635;SDS011;59438;45.014;39.006;2022-09-03T04:22:40;15.15;;;1.98;;
61635;SDS011;59438;45.014;39.006;2022-09-03T04:25:07;8.07;;;1.88;;
61635;SDS011;59438;45.014;39.006;2022-09-03T04:27:34;5.93;;;1.58;;
61635;SDS011;59438;45.014;39.006;2022-09-03T04:30:00;10.80;;;2.00;;
61635;SDS011;59438;45.014;39.006;2022-09-03T04:32:27;4.97;;;1.65;;
61635;SDS011;59438;45.014;39.006;2022-09-03T04:34:55;7.28;;;1.60;;
61635;SDS011;59438;45.014;39.006;2022-09-03T04:37:21;5.05;;;1.80;;
61635;SDS011;59438;45.014;39.006;2022-09-03T04:39:48;8.38;;;2.00;;
61635;SDS011;59438;45.014;39.006;2022-09-03T04:42:14;4.68;;;1.60;;
61635;SDS011;59438;45.014;39.006;2022-09-03T04:44:41;4.88;;;1.38;;
61635;SDS011;59438;45.014;39.006;2022-09-03T04:47:07;10.02;;;1.67;;
61635;SDS011;59438;45.014;39.006;2022-09-03T04:49:33;5.72;;;1.50;;
61635;SDS011;59438;45.014;39.006;2022-09-03T04:52:01;4.25;;;1.58;;
61635;SDS011;59438;45.014;39.006;2022-09-03T04:54:28;5.72;;;1.60;;
61635;SDS011;59438;45.014;39.006;2022-09-03T04:56:54;4.00;;;1.60;;
61635;SDS011;59438;45.014;39.006;2022-09-03T04:59:21;6.72;;;1.73;;
61635;SDS011;59438;45.014;39.006;2022-09-03T05:01:47;3.03;;;1.75;;
61635;SDS011;59438;45.014;39.006;2022-09-03T05:04:14;9.13;;;1.75;;
61635;SDS011;59438;45.014;39.006;2022-09-03T05:06:40;6.90;;;1.90;;
61635;SDS011;59438;45.014;39.006;2022-09-03T05:09:08;6.88;;;1.88;;
61635;SDS011;59438;45.014;39.006;2022-09-03T05:11:35;24.85;;;2.65;;
61635;SDS011;59438;45.014;39.006;2022-09-03T05:14:02;8.85;;;1.70;;
61635;SDS011;59438;45.014;39.006;2022-09-03T05:16:28;7.25;;;2.00;;
61635;SDS011;59438;45.014;39.006;2022-09-03T05:18:55;3.97;;;1.80;;
61635;SDS011;59438;45.014;39.006;2022-09-03T05:21:23;6.60;;;1.80;;
61635;SDS011;59438;45.014;39.006;2022-09-03T05:23:50;5.03;;;1.77;;
61635;SDS011;59438;45.014;39.006;2022-09-03T05:26:19;15.20;;;2.08;;
61635;SDS011;59438;45.014;39.006;2022-09-03T05:28:46;7.28;;;2.00;;
61635;SDS011;59438;45.014;39.006;2022-09-03T05:31:14;8.88;;;2.08;;
61635;SDS011;59438;45.014;39.006;2022-09-03T05:33:41;8.05;;;1.70;;
61635;SDS011;59438;45.014;39.006;2022-09-03T05:36:10;10.52;;;2.25;;
61635;SDS011;59438;45.014;39.006;2022-09-03T05:38:37;9.32;;;2.10;;
61635;SDS011;59438;45.014;39.006;2022-09-03T05:41:05;5.22;;;2.00;;
61635;SDS011;59438;45.014;39.006;2022-09-03T05:43:34;5.93;;;2.20;;
61635;SDS011;59438;45.014;39.006;2022-09-03T05:46:01;11.18;;;1.83;;
61635;SDS011;59438;45.014;39.006;2022-09-03T05:48:29;8.70;;;2.00;;
61635;SDS011;59438;45.014;39.006;2022-09-03T05:51:00;6.38;;;2.10;;
61635;SDS011;59438;45.014;39.006;2022-09-03T05:53:28;6.32;;;2.25;;
61635;SDS011;59438;45.014;39.006;2022-09-03T05:55:55;5.13;;;2.30;;
61635;SDS011;59438;45.014;39.006;2022-09-03T05:58:22;14.10;;;2.70;;
61635;SDS011;59438;45.014;39.006;2022-09-03T06:00:50;9.18;;;2.40;;
61635;SDS011;59438;45.014;39.006;2022-09-03T06:03:17;8.07;;;2.03;;
61635;SDS011;59438;45.014;39.006;2022-09-03T06:05:48;10.63;;;2.00;;
61635;SDS011;59438;45.014;39.006;2022-09-03T06:08:15;6.28;;;2.25;;
61635;SDS011;59438;45.014;39.006;2022-09-03T06:10:42;8.82;;;2.30;;
61635;SDS011;59438;45.014;39.006;2022-09-03T06:13:08;8.60;;;2.08;;
61635;SDS011;59438;45.014;39.006;2022-09-03T06:15:35;6.15;;;1.90;;
61635;SDS011;59438;45.014;39.006;2022-09-03T06:18:03;4.90;;;2.40;;
61635;SDS011;59438;45.014;39.006;2022-09-03T06:20:29;11.23;;;2.35;;
61635;SDS011;59438;45.014;39.006;2022-09-03T06:22:56;8.13;;;2.20;;
61635;SDS011;59438;45.014;39.006;2022-09-03T06:25:23;5.85;;;1.90;;
61635;SDS011;59438;45.014;39.006;2022-09-03T06:27:49;7.75;;;2.05;;
61635;SDS011;59438;45.014;39.006;2022-09-03T06:30:16;13.45;;;2.13;;
61635;SDS011;59438;45.014;39.006;2022-09-03T06:32:43;10.05;;;2.20;;
61635;SDS011;59438;45.014;39.006;2022-09-03T06:35:11;9.48;;;2.10;;
61635;SDS011;59438;45.014;39.006;2022-09-03T06:37:38;8.05;;;1.88;;
61635;SDS011;59438;45.014;39.006;2022-09-03T06:40:04;4.80;;;1.92;;
61635;SDS011;59438;45.014;39.006;2022-09-03T06:42:31;7.63;;;2.40;;
61635;SDS011;59438;45.014;39.006;2022-09-03T06:44:58;10.45;;;2.30;;
61635;SDS011;59438;45.014;39.006;2022-09-03T06:47:24;5.80;;;2.13;;
61635;SDS011;59438;45.014;39.006;2022-09-03T06:49:51;8.73;;;2.28;;
61635;SDS011;59438;45.014;39.006;2022-09-03T06:52:19;6.65;;;2.10;;
61635;SDS011;59438;45.014;39.006;2022-09-03T06:54:45;5.53;;;2.35;;
61635;SDS011;59438;45.014;39.006;2022-09-03T06:57:11;10.07;;;2.30;;
61635;SDS011;59438;45.014;39.006;2022-09-03T06:59:38;13.10;;;2.40;;
61635;SDS011;59438;45.014;39.006;2022-09-03T07:02:04;8.43;;;2.25;;
61635;SDS011;59438;45.014;39.006;2022-09-03T07:04:31;6.00;;;2.13;;
61635;SDS011;59438;45.014;39.006;2022-09-03T07:06:58;9.63;;;2.25;;
61635;SDS011;59438;45.014;39.006;2022-09-03T07:09:26;10.10;;;2.28;;
61635;SDS011;59438;45.014;39.006;2022-09-03T07:11:53;7.93;;;2.28;;
61635;SDS011;59438;45.014;39.006;2022-09-03T07:14:20;11.73;;;2.53;;
61635;SDS011;59438;45.014;39.006;2022-09-03T07:16:47;8.10;;;2.40;;
61635;SDS011;59438;45.014;39.006;2022-09-03T07:19:15;10.82;;;2.22;;
61635;SDS011;59438;45.014;39.006;2022-09-03T07:21:42;9.77;;;2.10;;
61635;SDS011;59438;45.014;39.006;2022-09-03T07:24:08;7.38;;;2.40;;
61635;SDS011;59438;45.014;39.006;2022-09-03T07:26:37;10.55;;;2.10;;
61635;SDS011;59438;45.014;39.006;2022-09-03T07:29:05;9.00;;;2.67;;
61635;SDS011;59438;45.014;39.006;2022-09-03T07:31:33;9.38;;;2.25;;
61635;SDS011;59438;45.014;39.006;2022-09-03T07:34:03;11.15;;;2.45;;
61635;SDS011;59438;45.014;39.006;2022-09-03T07:36:30;4.60;;;2.17;;
61635;SDS011;59438;45.014;39.006;2022-09-03T07:39:01;5.38;;;2.20;;
61635;SDS011;59438;45.014;39.006;2022-09-03T07:41:27;9.50;;;2.42;;
61635;SDS011;59438;45.014;39.006;2022-09-03T07:43:55;9.57;;;2.45;;
61635;SDS011;59438;45.014;39.006;2022-09-03T07:46:22;9.52;;;2.65;;
61635;SDS011;59438;45.014;39.006;2022-09-03T07:48:51;4.57;;;2.25;;
61635;SDS011;59438;45.014;39.006;2022-09-03T07:51:18;6.90;;;2.47;;
61635;SDS011;59438;45.014;39.006;2022-09-03T07:53:46;8.77;;;2.50;;
61635;SDS011;59438;45.014;39.006;2022-09-03T07:56:13;10.75;;;2.70;;
61635;SDS011;59438;45.014;39.006;2022-09-03T07:58:40;6.72;;;2.40;;
61635;SDS011;59438;45.014;39.006;2022-09-03T08:01:08;12.82;;;2.92;;
61635;SDS011;59438;45.014;39.006;2022-09-03T08:06:04;9.45;;;2.63;;
61635;SDS011;59438;45.014;39.006;2022-09-03T08:08:32;9.98;;;2.75;;
61635;SDS011;59438;45.014;39.006;2022-09-03T08:11:03;8.48;;;2.60;;
61635;SDS011;59438;45.014;39.006;2022-09-03T08:13:30;11.82;;;2.70;;
61635;SDS011;59438;45.014;39.006;2022-09-03T08:15:57;8.85;;;2.67;;
61635;SDS011;59438;45.014;39.006;2022-09-03T08:18:25;10.32;;;2.53;;
61635;SDS011;59438;45.014;39.006;2022-09-03T08:20:51;11.13;;;2.83;;
61635;SDS011;59438;45.014;39.006;2022-09-03T08:23:17;7.57;;;2.50;;
61635;SDS011;59438;45.014;39.006;2022-09-03T08:25:44;7.10;;;2.30;;
61635;SDS011;59438;45.014;39.006;2022-09-03T08:28:10;16.48;;;2.70;;
61635;SDS011;59438;45.014;39.006;2022-09-03T08:30:37;10.65;;;2.50;;
61635;SDS011;59438;45.014;39.006;2022-09-03T08:33:03;7.60;;;2.50;;
61635;SDS011;59438;45.014;39.006;2022-09-03T08:35:31;14.23;;;2.80;;
61635;SDS011;59438;45.014;39.006;2022-09-03T08:37:57;11.00;;;2.92;;
61635;SDS011;59438;45.014;39.006;2022-09-03T08:40:24;5.88;;;2.65;;
61635;SDS011;59438;45.014;39.006;2022-09-03T08:42:55;12.68;;;2.65;;
61635;SDS011;59438;45.014;39.006;2022-09-03T08:45:29;14.30;;;3.15;;
61635;SDS011;59438;45.014;39.006;2022-09-03T08:48:00;18.50;;;3.15;;
61635;SDS011;59438;45.014;39.006;2022-09-03T08:50:32;8.45;;;2.40;;
61635;SDS011;59438;45.014;39.006;2022-09-03T08:53:06;10.55;;;2.50;;
61635;SDS011;59438;45.014;39.006;2022-09-03T08:55:38;12.32;;;3.13;;
61635;SDS011;59438;45.014;39.006;2022-09-03T08:58:12;9.50;;;2.78;;
61635;SDS011;59438;45.014;39.006;2022-09-03T09:00:41;10.77;;;2.63;;
61635;SDS011;59438;45.014;39.006;2022-09-03T09:03:22;12.30;;;2.53;;
61635;SDS011;59438;45.014;39.006;2022-09-03T09:06:02;9.55;;;2.75;;
61635;SDS011;59438;45.014;39.006;2022-09-03T09:08:37;10.27;;;2.63;;
61635;SDS011;59438;45.014;39.006;2022-09-03T09:11:13;8.07;;;2.55;;
61635;SDS011;59438;45.014;39.006;2022-09-03T09:13:47;7.18;;;2.30;;
61635;SDS011;59438;45.014;39.006;2022-09-03T09:16:25;7.63;;;2.70;;
61635;SDS011;59438;45.014;39.006;2022-09-03T09:19:02;12.43;;;2.90;;
61635;SDS011;59438;45.014;39.006;2022-09-03T09:21:40;8.88;;;2.67;;
61635;SDS011;59438;45.014;39.006;2022-09-03T09:24:14;7.28;;;2.95;;
61635;SDS011;59438;45.014;39.006;2022-09-03T09:26:46;14.05;;;2.65;;
61635;SDS011;59438;45.014;39.006;2022-09-03T09:29:13;16.90;;;2.78;;
61635;SDS011;59438;45.014;39.006;2022-09-03T09:31:41;12.20;;;2.92;;
61635;SDS011;59438;45.014;39.006;2022-09-03T09:34:07;16.88;;;2.92;;
61635;SDS011;59438;45.014;39.006;2022-09-03T09:36:35;10.98;;;3.25;;
61635;SDS011;59438;45.014;39.006;2022-09-03T09:39:09;11.35;;;3.30;;
61635;SDS011;59438;45.014;39.006;2022-09-03T09:41:36;8.50;;;2.53;;
61635;SDS011;59438;45.014;39.006;2022-09-03T09:44:02;19.13;;;2.70;;
61635;SDS011;59438;45.014;39.006;2022-09-03T09:46:30;8.20;;;2.72;;
61635;SDS011;59438;45.014;39.006;2022-09-03T09:49:00;8.43;;;2.80;;
61635;SDS011;59438;45.014;39.006;2022-09-03T09:51:28;14.90;;;2.97;;
61635;SDS011;59438;45.014;39.006;2022-09-03T09:54:02;11.50;;;3.03;;
61635;SDS011;59438;45.014;39.006;2022-09-03T09:56:41;15.20;;;3.67;;
61635;SDS011;59438;45.014;39.006;2022-09-03T09:59:08;10.02;;;2.85;;
61635;SDS011;59438;45.014;39.006;2022-09-03T10:01:35;15.82;;;3.08;;
61635;SDS011;59438;45.014;39.006;2022-09-03T10:04:07;10.50;;;3.30;;
61635;SDS011;59438;45.014;39.006;2022-09-03T10:06:36;10.85;;;3.03;;
61635;SDS011;59438;45.014;39.006;2022-09-03T10:09:06;9.30;;;3.40;;
61635;SDS011;59438;45.014;39.006;2022-09-03T10:11:34;11.80;;;3.00;;
61635;SDS011;59438;45.014;39.006;2022-09-03T10:14:04;7.68;;;3.20;;
61635;SDS011;59438;45.014;39.006;2022-09-03T10:16:39;10.25;;;3.08;;
61635;SDS011;59438;45.014;39.006;2022-09-03T10:19:10;15.23;;;3.90;;
61635;SDS011;59438;45.014;39.006;2022-09-03T10:21:42;10.65;;;3.35;;
61635;SDS011;59438;45.014;39.006;2022-09-03T10:24:25;14.70;;;3.53;;
61635;SDS011;59438;45.014;39.006;2022-09-03T10:27:00;10.85;;;3.47;;
61635;SDS011;59438;45.014;39.006;2022-09-03T10:29:28;10.50;;;3.22;;
61635;SDS011;59438;45.014;39.006;2022-09-03T10:32:00;6.55;;;2.75;;
61635;SDS011;59438;45.014;39.006;2022-09-03T10:37:16;16.60;;;3.97;;
61635;SDS011;59438;45.014;39.006;2022-09-03T10:39:55;17.70;;;4.30;;
61635;SDS011;59438;45.014;39.006;2022-09-03T10:45:09;10.07;;;3.30;;
61635;SDS011;59438;45.014;39.006;2022-09-03T10:47:49;5.32;;;2.90;;
61635;SDS011;59438;45.014;39.006;2022-09-03T10:50:41;13.60;;;3.33;;
61635;SDS011;59438;45.014;39.006;2022-09-03T10:53:13;15.32;;;3.53;;
61635;SDS011;59438;45.014;39.006;2022-09-03T10:55:48;15.93;;;3.17;;
61635;SDS011;59438;45.014;39.006;2022-09-03T10:58:29;15.57;;;3.15;;
61635;SDS011;59438;45.014;39.006;2022-09-03T11:01:15;19.90;;;3.28;;
61635;SDS011;59438;45.014;39.006;2022-09-03T11:03:51;11.13;;;3.45;;
61635;SDS011;59438;45.014;39.006;2022-09-03T11:06:31;10.57;;;3.40;;
61635;SDS011;59438;45.014;39.006;2022-09-03T11:09:08;12.18;;;3.67;;
61635;SDS011;59438;45.014;39.006;2022-09-03T11:11:41;6.78;;;3.28;;
61635;SDS011;59438;45.014;39.006;2022-09-03T11:14:12;13.45;;;3.60;;
61635;SDS011;59438;45.014;39.006;2022-09-03T11:16:44;11.35;;;3.40;;
61635;SDS011;59438;45.014;39.006;2022-09-03T11:19:15;13.40;;;3.47;;
61635;SDS011;59438;45.014;39.006;2022-09-03T11:21:46;11.20;;;3.58;;
61635;SDS011;59438;45.014;39.006;2022-09-03T11:24:13;11.52;;;3.80;;
61635;SDS011;59438;45.014;39.006;2022-09-03T11:26:44;14.60;;;3.78;;
61635;SDS011;59438;45.014;39.006;2022-09-03T11:29:16;14.32;;;3.83;;
61635;SDS011;59438;45.014;39.006;2022-09-03T11:31:53;10.40;;;3.40;;
61635;SDS011;59438;45.014;39.006;2022-09-03T11:34:26;10.40;;;3.92;;
61635;SDS011;59438;45.014;39.006;2022-09-03T11:37:05;14.10;;;3.63;;
61635;SDS011;59438;45.014;39.006;2022-09-03T11:39:51;10.30;;;3.77;;
61635;SDS011;59438;45.014;39.006;2022-09-03T11:42:26;18.25;;;3.83;;
61635;SDS011;59438;45.014;39.006;2022-09-03T11:44:58;9.70;;;3.08;;
61635;SDS011;59438;45.014;39.006;2022-09-03T11:47:38;11.23;;;3.67;;
61635;SDS011;59438;45.014;39.006;2022-09-03T11:50:07;12.82;;;3.30;;
61635;SDS011;59438;45.014;39.006;2022-09-03T11:52:41;13.77;;;3.35;;
61635;SDS011;59438;45.014;39.006;2022-09-03T11:55:08;6.38;;;3.45;;
61635;SDS011;59438;45.014;39.006;2022-09-03T11:57:38;11.90;;;3.63;;
61635;SDS011;59438;45.014;39.006;2022-09-03T12:00:07;7.38;;;3.13;;
61635;SDS011;59438;45.014;39.006;2022-09-03T12:02:35;26.70;;;4.00;;
61635;SDS011;59438;45.014;39.006;2022-09-03T12:05:13;10.57;;;3.55;;
61635;SDS011;59438;45.014;39.006;2022-09-03T12:10:52;16.92;;;3.45;;
61635;SDS011;59438;45.014;39.006;2022-09-03T12:13:31;12.52;;;3.83;;
61635;SDS011;59438;45.014;39.006;2022-09-03T12:16:21;14.50;;;3.70;;
61635;SDS011;59438;45.014;39.006;2022-09-03T12:18:59;13.95;;;3.55;;
61635;SDS011;59438;45.014;39.006;2022-09-03T12:21:28;11.80;;;3.72;;
61635;SDS011;59438;45.014;39.006;2022-09-03T12:23:55;13.68;;;3.30;;
61635;SDS011;59438;45.014;39.006;2022-09-03T12:26:22;8.57;;;3.28;;
61635;SDS011;59438;45.014;39.006;2022-09-03T12:28:51;18.73;;;3.58;;
61635;SDS011;59438;45.014;39.006;2022-09-03T12:31:19;9.38;;;3.60;;
61635;SDS011;59438;45.014;39.006;2022-09-03T12:33:48;13.77;;;3.63;;
61635;SDS011;59438;45.014;39.006;2022-09-03T12:36:16;16.67;;;3.88;;
61635;SDS011;59438;45.014;39.006;2022-09-03T12:38:43;12.80;;;3.65;;
61635;SDS011;59438;45.014;39.006;2022-09-03T12:41:19;9.45;;;3.50;;
61635;SDS011;59438;45.014;39.006;2022-09-03T12:43:49;16.75;;;3.92;;
61635;SDS011;59438;45.014;39.006;2022-09-03T12:46:17;11.63;;;3.72;;
61635;SDS011;59438;45.014;39.006;2022-09-03T12:48:51;15.45;;;3.70;;
61635;SDS011;59438;45.014;39.006;2022-09-03T12:51:20;13.07;;;3.55;;
61635;SDS011;59438;45.014;39.006;2022-09-03T12:53:47;14.27;;;4.30;;
61635;SDS011;59438;45.014;39.006;2022-09-03T12:56:16;16.40;;;3.90;;
61635;SDS011;59438;45.014;39.006;2022-09-03T12:58:45;9.82;;;3.70;;
61635;SDS011;59438;45.014;39.006;2022-09-03T13:01:18;24.27;;;4.00;;
61635;SDS011;59438;45.014;39.006;2022-09-03T13:03:48;15.60;;;3.58;;
61635;SDS011;59438;45.014;39.006;2022-09-03T13:06:19;13.77;;;4.32;;
61635;SDS011;59438;45.014;39.006;2022-09-03T13:08:51;44.05;;;5.28;;
61635;SDS011;59438;45.014;39.006;2022-09-03T13:11:20;12.07;;;3.83;;
61635;SDS011;59438;45.014;39.006;2022-09-03T13:13:51;22.10;;;4.57;;
61635;SDS011;59438;45.014;39.006;2022-09-03T13:16:41;71.28;;;6.68;;
61635;SDS011;59438;45.014;39.006;2022-09-03T13:19:38;42.78;;;5.85;;
61635;SDS011;59438;45.014;39.006;2022-09-03T13:22:18;16.88;;;4.50;;
61635;SDS011;59438;45.014;39.006;2022-09-03T13:25:07;15.13;;;4.20;;
61635;SDS011;59438;45.014;39.006;2022-09-03T13:27:43;14.68;;;4.47;;
61635;SDS011;59438;45.014;39.006;2022-09-03T13:30:19;17.70;;;3.97;;
61635;SDS011;59438;45.014;39.006;2022-09-03T13:32:50;11.80;;;3.97;;
61635;SDS011;59438;45.014;39.006;2022-09-03T13:35:26;20.83;;;4.20;;
61635;SDS011;59438;45.014;39.006;2022-09-03T13:38:02;10.73;;;4.13;;
61635;SDS011;59438;45.014;39.006;2022-09-03T13:40:34;14.15;;;4.13;;
61635;SDS011;59438;45.014;39.006;2022-09-03T13:43:08;7.75;;;4.10;;
61635;SDS011;59438;45.014;39.006;2022-09-03T13:45:50;13.00;;;4.07;;
61635;SDS011;59438;45.014;39.006;2022-09-03T13:48:24;15.50;;;4.22;;
61635;SDS011;59438;45.014;39.006;2022-09-03T13:50:58;11.80;;;4.05;;
61635;SDS011;59438;45.014;39.006;2022-09-03T13:53:39;15.45;;;4.28;;
61635;SDS011;59438;45.014;39.006;2022-09-03T13:56:21;16.83;;;4.53;;
61635;SDS011;59438;45.014;39.006;2022-09-03T13:58:55;12.20;;;4.55;;
61635;SDS011;59438;45.014;39.006;2022-09-03T14:01:41;14.18;;;4.00;;
61635;SDS011;59438;45.014;39.006;2022-09-03T14:04:27;16.95;;;3.85;;
61635;SDS011;59438;45.014;39.006;2022-09-03T14:07:00;10.75;;;3.85;;
61635;SDS011;59438;45.014;39.006;2022-09-03T14:09:34;19.10;;;3.92;;
61635;SDS011;59438;45.014;39.006;2022-09-03T14:12:09;12.35;;;4.70;;
61635;SDS011;59438;45.014;39.006;2022-09-03T14:14:40;13.57;;;3.60;;
61635;SDS011;59438;45.014;39.006;2022-09-03T14:17:18;12.50;;;3.63;;
61635;SDS011;59438;45.014;39.006;2022-09-03T14:19:57;17.92;;;3.78;;
61635;SDS011;59438;45.014;39.006;2022-09-03T14:22:29;17.80;;;3.30;;
61635;SDS011;59438;45.014;39.006;2022-09-03T14:25:10;10.38;;;3.22;;
61635;SDS011;59438;45.014;39.006;2022-09-03T14:27:40;18.23;;;3.40;;
61635;SDS011;59438;45.014;39.006;2022-09-03T14:30:17;17.33;;;3.80;;
61635;SDS011;59438;45.014;39.006;2022-09-03T14:32:50;13.77;;;3.63;;
61635;SDS011;59438;45.014;39.006;2022-09-03T14:35:27;12.15;;;3.47;;
61635;SDS011;59438;45.014;39.006;2022-09-03T14:41:33;17.67;;;3.10;;
61635;SDS011;59438;45.014;39.006;2022-09-03T14:44:31;15.85;;;3.40;;
61635;SDS011;59438;45.014;39.006;2022-09-03T14:47:10;11.88;;;3.03;;
61635;SDS011;59438;45.014;39.006;2022-09-03T14:49:57;13.00;;;3.42;;
61635;SDS011;59438;45.014;39.006;2022-09-03T14:52:51;12.65;;;2.90;;
61635;SDS011;59438;45.014;39.006;2022-09-03T14:55:37;12.65;;;2.63;;
61635;SDS011;59438;45.014;39.006;2022-09-03T14:58:34;13.35;;;3.15;;
61635;SDS011;59438;45.014;39.006;2022-09-03T15:01:14;13.13;;;3.17;;
61635;SDS011;59438;45.014;39.006;2022-09-03T15:03:58;11.65;;;2.90;;
61635;SDS011;59438;45.014;39.006;2022-09-03T15:06:51;19.60;;;3.72;;
61635;SDS011;59438;45.014;39.006;2022-09-03T15:09:37;12.07;;;3.20;;